createdAt,value
2018-12-05T00:00:48.302Z,1005.37
2018-12-05T00:01:48.327Z,1005.40
2018-12-05T00:02:48.350Z,1005.37
2018-12-05T00:03:48.374Z,1005.39
2018-12-05T00:04:48.397Z,1005.40
2018-12-05T00:05:48.422Z,1005.40
2018-12-05T00:06:48.444Z,1005.39
2018-12-05T00:07:48.469Z,1005.40
2018-12-05T00:08:48.493Z,1005.45
2018-12-05T00:09:48.514Z,1005.43
2018-12-05T00:10:48.538Z,1005.44
2018-12-05T00:11:48.565Z,1005.41
2018-12-05T00:12:48.587Z,1005.43
2018-12-05T00:13:48.610Z,1005.46
2018-12-05T00:14:48.632Z,1005.45
2018-12-05T00:15:48.661Z,1005.43
2018-12-05T00:16:48.681Z,1005.48
2018-12-05T00:17:48.707Z,1005.56
2018-12-05T00:18:48.731Z,1005.55
2018-12-05T00:19:48.751Z,1005.53
2018-12-05T00:20:48.777Z,1005.55
2018-12-05T00:21:48.800Z,1005.56
2018-12-05T00:22:48.822Z,1005.54
2018-12-05T00:23:48.845Z,1005.58
2018-12-05T00:24:48.869Z,1005.60
2018-12-05T00:25:48.897Z,1005.60
2018-12-05T00:26:48.915Z,1005.63
2018-12-05T00:27:48.942Z,1005.65
2018-12-05T00:28:48.965Z,1005.68
2018-12-05T00:29:48.989Z,1005.67
2018-12-05T00:30:49.011Z,1005.66
2018-12-05T00:31:49.035Z,1005.70
2018-12-05T00:32:49.056Z,1005.67
2018-12-05T00:33:49.082Z,1005.71
2018-12-05T00:34:49.107Z,1005.69
2018-12-05T00:35:49.126Z,1005.69
2018-12-05T00:36:49.153Z,1005.74
2018-12-05T00:37:49.173Z,1005.75
2018-12-05T00:38:49.199Z,1005.74
2018-12-05T00:39:49.220Z,1005.73
2018-12-05T00:40:49.248Z,1005.75
2018-12-05T00:41:49.267Z,1005.82
2018-12-05T00:42:49.293Z,1005.77
2018-12-05T00:43:49.316Z,1005.82
2018-12-05T00:44:49.339Z,1005.86
2018-12-05T00:45:49.361Z,1005.89
2018-12-05T00:46:49.385Z,1005.86
2018-12-05T00:47:49.410Z,1005.88
2018-12-05T00:48:49.434Z,1005.95
2018-12-05T00:49:49.455Z,1005.90
2018-12-05T00:50:49.480Z,1005.91
2018-12-05T00:51:49.502Z,1005.97
2018-12-05T00:52:49.526Z,1005.94
2018-12-05T00:53:49.548Z,1005.87
2018-12-05T00:54:49.575Z,1005.87
2018-12-05T00:55:49.596Z,1005.90
2018-12-05T00:56:49.636Z,1005.93
2018-12-05T00:57:49.642Z,1005.98
2018-12-05T00:58:49.666Z,1005.97
2018-12-05T00:59:49.692Z,1005.90
2018-12-05T01:00:49.714Z,1005.95
2018-12-05T01:01:49.740Z,1005.97
2018-12-05T01:02:49.758Z,1005.95
2018-12-05T01:03:49.784Z,1005.95
2018-12-05T01:04:49.807Z,1006.06
2018-12-05T01:05:49.830Z,1006.07
2018-12-05T01:06:49.856Z,1006.09
2018-12-05T01:07:49.877Z,1006.07
2018-12-05T01:08:49.900Z,1006.06
2018-12-05T01:09:49.923Z,1006.10
2018-12-05T01:10:49.948Z,1006.15
2018-12-05T01:11:50.054Z,1006.05
2018-12-05T01:12:49.994Z,1006.12
2018-12-05T01:13:50.019Z,1006.15
2018-12-05T01:14:50.040Z,1006.14
2018-12-05T01:15:50.065Z,1006.16
2018-12-05T01:16:50.086Z,1006.17
2018-12-05T01:17:50.111Z,1006.17
2018-12-05T01:18:50.134Z,1006.10
2018-12-05T01:19:50.157Z,1006.16
2018-12-05T01:20:50.183Z,1006.21
2018-12-05T01:21:50.206Z,1006.16
2018-12-05T01:22:50.228Z,1006.20
2018-12-05T01:23:50.256Z,1006.23
2018-12-05T01:24:50.277Z,1006.26
2018-12-05T01:25:50.298Z,1006.23
2018-12-05T01:26:50.323Z,1006.24
2018-12-05T01:27:50.345Z,1006.28
2018-12-05T01:28:50.369Z,1006.29
2018-12-05T01:29:50.391Z,1006.30
2018-12-05T01:30:50.421Z,1006.30
2018-12-05T01:31:50.444Z,1006.30
2018-12-05T01:32:50.468Z,1006.36
2018-12-05T01:33:50.486Z,1006.35
2018-12-05T01:34:50.511Z,1006.39
2018-12-05T01:35:50.530Z,1006.41
2018-12-05T01:36:50.555Z,1006.42
2018-12-05T01:37:50.578Z,1006.43
2018-12-05T01:38:50.605Z,1006.44
2018-12-05T01:39:50.629Z,1006.46
2018-12-05T01:40:50.648Z,1006.48
2018-12-05T01:41:50.672Z,1006.46
2018-12-05T01:42:50.694Z,1006.51
2018-12-05T01:43:50.720Z,1006.56
2018-12-05T01:44:50.745Z,1006.54
2018-12-05T01:45:50.764Z,1006.53
2018-12-05T01:46:50.793Z,1006.52
2018-12-05T01:47:50.811Z,1006.52
2018-12-05T01:48:50.836Z,1006.58
2018-12-05T01:49:50.860Z,1006.56
2018-12-05T01:50:50.883Z,1006.54
2018-12-05T01:51:50.906Z,1006.57
2018-12-05T01:52:50.929Z,1006.54
2018-12-05T01:53:50.953Z,1006.54
2018-12-05T01:54:50.975Z,1006.58
2018-12-05T01:55:51.001Z,1006.58
2018-12-05T01:56:51.023Z,1006.55
2018-12-05T01:57:51.047Z,1006.60
2018-12-05T01:58:51.072Z,1006.54
2018-12-05T01:59:51.093Z,1006.62
2018-12-05T02:00:51.117Z,1006.63
2018-12-05T02:01:51.140Z,1006.62
2018-12-05T02:02:51.167Z,1006.69
2018-12-05T02:03:51.188Z,1006.67
2018-12-05T02:04:51.211Z,1006.63
2018-12-05T02:05:51.234Z,1006.67
2018-12-05T02:06:51.257Z,1006.69
2018-12-05T02:07:51.287Z,1006.68
2018-12-05T02:08:51.306Z,1006.72
2018-12-05T02:09:51.327Z,1006.73
2018-12-05T02:10:51.355Z,1006.71
2018-12-05T02:11:51.375Z,1006.80
2018-12-05T02:12:51.399Z,1006.82
2018-12-05T02:13:51.423Z,1006.87
2018-12-05T02:14:51.451Z,1006.89
2018-12-05T02:15:51.471Z,1006.86
2018-12-05T02:16:51.493Z,1006.89
2018-12-05T02:17:51.520Z,1006.88
2018-12-05T02:18:51.545Z,1006.91
2018-12-05T02:19:51.567Z,1006.95
2018-12-05T02:20:51.591Z,1006.93
2018-12-05T02:21:51.611Z,1006.95
2018-12-05T02:22:51.635Z,1006.95
2018-12-05T02:23:51.658Z,1006.95
2018-12-05T02:24:51.688Z,1006.96
2018-12-05T02:25:51.708Z,1006.97
2018-12-05T02:26:51.731Z,1007.00
2018-12-05T02:27:51.753Z,1007.02
2018-12-05T02:28:51.782Z,1007.05
2018-12-05T02:29:51.801Z,1007.04
2018-12-05T02:30:51.824Z,1007.05
2018-12-05T02:31:51.848Z,1007.01
2018-12-05T02:32:51.871Z,1007.03
2018-12-05T02:33:51.894Z,1007.06
2018-12-05T02:34:51.920Z,1007.07
2018-12-05T02:35:51.942Z,1007.07
2018-12-05T02:36:51.967Z,1007.06
2018-12-05T02:37:51.990Z,1007.08
2018-12-05T02:38:52.014Z,1007.13
2018-12-05T02:39:52.037Z,1007.03
2018-12-05T02:40:52.063Z,1007.06
2018-12-05T02:41:52.085Z,1007.06
2018-12-05T02:42:52.110Z,1007.09
2018-12-05T02:43:52.133Z,1007.13
2018-12-05T02:44:52.158Z,1007.13
2018-12-05T02:45:52.180Z,1007.16
2018-12-05T02:46:52.204Z,1007.16
2018-12-05T02:47:52.235Z,1007.15
2018-12-05T02:48:52.256Z,1007.17
2018-12-05T02:49:52.301Z,1007.16
2018-12-05T02:50:52.300Z,1007.19
2018-12-05T02:51:52.326Z,1007.23
2018-12-05T02:52:52.354Z,1007.20
2018-12-05T02:53:52.375Z,1007.22
2018-12-05T02:54:52.395Z,1007.22
2018-12-05T02:55:52.421Z,1007.24
2018-12-05T02:56:52.451Z,1007.26
2018-12-05T02:57:52.470Z,1007.30
2018-12-05T02:58:52.492Z,1007.36
2018-12-05T02:59:52.519Z,1007.35
2018-12-05T03:00:52.543Z,1007.41
2018-12-05T03:01:52.564Z,1007.42
2018-12-05T03:02:52.592Z,1007.49
2018-12-05T03:03:52.614Z,1007.47
2018-12-05T03:04:52.637Z,1007.51
2018-12-05T03:05:52.685Z,1007.52
2018-12-05T03:06:52.685Z,1007.53
2018-12-05T03:07:52.757Z,1007.55
2018-12-05T03:08:52.735Z,1007.53
2018-12-05T03:09:52.762Z,1007.54
2018-12-05T03:10:52.778Z,1007.55
2018-12-05T03:11:52.803Z,1007.57
2018-12-05T03:12:52.830Z,1007.58
2018-12-05T03:13:52.849Z,1007.60
2018-12-05T03:14:52.873Z,1007.57
2018-12-05T03:15:52.899Z,1007.61
2018-12-05T03:16:52.923Z,1007.62
2018-12-05T03:17:52.953Z,1007.56
2018-12-05T03:18:52.971Z,1007.57
2018-12-05T03:19:52.996Z,1007.57
2018-12-05T03:20:53.025Z,1007.66
2018-12-05T03:21:53.045Z,1007.61
2018-12-05T03:22:53.073Z,1007.66
2018-12-05T03:23:53.092Z,1007.69
2018-12-05T03:24:53.113Z,1007.70
2018-12-05T03:25:53.136Z,1007.70
2018-12-05T03:26:53.162Z,1007.72
2018-12-05T03:27:53.185Z,1007.76
2018-12-05T03:28:53.212Z,1007.80
2018-12-05T03:29:53.241Z,1007.82
2018-12-05T03:30:53.257Z,1007.76
2018-12-05T03:31:53.281Z,1007.93
2018-12-05T03:32:53.334Z,1007.90
2018-12-05T03:33:53.328Z,1007.93
2018-12-05T03:34:53.358Z,1007.93
2018-12-05T03:35:53.376Z,1007.96
2018-12-05T03:36:53.404Z,1008.06
2018-12-05T03:37:53.423Z,1007.99
2018-12-05T03:38:53.446Z,1007.99
2018-12-05T03:39:53.471Z,1008.00
2018-12-05T03:40:53.498Z,1008.05
2018-12-05T03:41:53.521Z,1008.07
2018-12-05T03:42:53.548Z,1008.03
2018-12-05T03:43:53.570Z,1008.05
2018-12-05T03:44:53.591Z,1008.05
2018-12-05T03:45:53.615Z,1008.05
2018-12-05T03:46:53.640Z,1008.04
2018-12-05T03:47:53.665Z,1008.08
2018-12-05T03:48:53.688Z,1008.06
2018-12-05T03:49:53.711Z,1008.09
2018-12-05T03:50:53.735Z,1008.14
2018-12-05T03:51:53.762Z,1008.12
2018-12-05T03:52:53.795Z,1008.20
2018-12-05T03:53:53.810Z,1008.15
2018-12-05T03:54:53.832Z,1008.14
2018-12-05T03:55:53.857Z,1008.21
2018-12-05T03:56:53.884Z,1008.22
2018-12-05T03:57:53.910Z,1008.25
2018-12-05T03:58:53.928Z,1008.26
2018-12-05T03:59:53.955Z,1008.33
2018-12-05T04:00:53.980Z,1008.33
2018-12-05T04:01:54.001Z,1008.33
2018-12-05T04:02:54.027Z,1008.36
2018-12-05T04:03:54.054Z,1008.36
2018-12-05T04:04:54.078Z,1008.39
2018-12-05T04:05:54.099Z,1008.40
2018-12-05T04:06:54.126Z,1008.40
2018-12-05T04:07:54.148Z,1008.42
2018-12-05T04:08:54.172Z,1008.42
2018-12-05T04:09:54.198Z,1008.48
2018-12-05T04:10:54.222Z,1008.49
2018-12-05T04:11:54.244Z,1008.51
2018-12-05T04:12:54.271Z,1008.53
2018-12-05T04:13:54.295Z,1008.60
2018-12-05T04:14:54.318Z,1008.54
2018-12-05T04:15:54.375Z,1008.56
2018-12-05T04:16:54.368Z,1008.65
2018-12-05T04:17:54.392Z,1008.61
2018-12-05T04:18:54.413Z,1008.64
2018-12-05T04:19:54.440Z,1008.63
2018-12-05T04:20:54.467Z,1008.62
2018-12-05T04:21:54.488Z,1008.58
2018-12-05T04:22:54.511Z,1008.65
2018-12-05T04:23:54.537Z,1008.63
2018-12-05T04:24:54.562Z,1008.60
2018-12-05T04:25:54.583Z,1008.68
2018-12-05T04:26:54.610Z,1008.69
2018-12-05T04:27:54.638Z,1008.73
2018-12-05T04:28:54.660Z,1008.69
2018-12-05T04:29:54.689Z,1008.69
2018-12-05T04:30:54.705Z,1008.72
2018-12-05T04:31:54.728Z,1008.73
2018-12-05T04:32:54.759Z,1008.72
2018-12-05T04:33:54.782Z,1008.74
2018-12-05T04:34:54.806Z,1008.74
2018-12-05T04:35:54.828Z,1008.75
2018-12-05T04:36:54.852Z,1008.76
2018-12-05T04:37:54.880Z,1008.80
2018-12-05T04:38:54.900Z,1008.86
2018-12-05T04:39:54.928Z,1008.84
2018-12-05T04:40:54.951Z,1008.86
2018-12-05T04:41:54.974Z,1008.83
2018-12-05T04:42:55.003Z,1008.81
2018-12-05T04:43:55.023Z,1008.84
2018-12-05T04:44:55.050Z,1008.84
2018-12-05T04:45:55.071Z,1008.84
2018-12-05T04:46:55.094Z,1008.88
2018-12-05T04:47:55.119Z,1008.89
2018-12-05T04:48:55.143Z,1008.92
2018-12-05T04:49:55.169Z,1008.91
2018-12-05T04:50:55.201Z,1008.95
2018-12-05T04:51:55.222Z,1008.96
2018-12-05T04:52:55.242Z,1008.94
2018-12-05T04:53:55.263Z,1008.99
2018-12-05T04:54:55.291Z,1008.99
2018-12-05T04:55:55.316Z,1008.99
2018-12-05T04:56:55.340Z,1009.02
2018-12-05T04:57:55.361Z,1009.07
2018-12-05T04:58:55.387Z,1009.08
2018-12-05T04:59:55.416Z,1009.06
2018-12-05T05:00:55.434Z,1009.07
2018-12-05T05:01:55.461Z,1009.11
2018-12-05T05:02:55.481Z,1009.16
2018-12-05T05:03:55.509Z,1009.18
2018-12-05T05:04:55.531Z,1009.20
2018-12-05T05:05:55.554Z,1009.20
2018-12-05T05:06:55.578Z,1009.23
2018-12-05T05:07:55.602Z,1009.30
2018-12-05T05:08:55.628Z,1009.29
2018-12-05T05:09:55.653Z,1009.25
2018-12-05T05:10:55.674Z,1009.29
2018-12-05T05:11:55.700Z,1009.30
2018-12-05T05:12:55.732Z,1009.33
2018-12-05T05:13:55.748Z,1009.35
2018-12-05T05:14:55.775Z,1009.30
2018-12-05T05:15:55.803Z,1009.34
2018-12-05T05:16:55.822Z,1009.36
2018-12-05T05:17:55.848Z,1009.35
2018-12-05T05:18:55.866Z,1009.34
2018-12-05T05:19:55.892Z,1009.39
2018-12-05T05:20:55.917Z,1009.42
2018-12-05T05:21:55.944Z,1009.40
2018-12-05T05:22:55.965Z,1009.42
2018-12-05T05:23:55.991Z,1009.41
2018-12-05T05:24:56.012Z,1009.45
2018-12-05T05:25:56.037Z,1009.51
2018-12-05T05:26:56.061Z,1009.43
2018-12-05T05:27:56.088Z,1009.53
2018-12-05T05:28:56.110Z,1009.45
2018-12-05T05:29:56.132Z,1009.49
2018-12-05T05:30:56.157Z,1009.50
2018-12-05T05:31:56.183Z,1009.52
2018-12-05T05:32:56.211Z,1009.55
2018-12-05T05:33:56.238Z,1009.58
2018-12-05T05:34:56.252Z,1009.61
2018-12-05T05:35:56.284Z,1009.65
2018-12-05T05:36:56.303Z,1009.61
2018-12-05T05:37:56.325Z,1009.67
2018-12-05T05:38:56.348Z,1009.71
2018-12-05T05:39:56.375Z,1009.72
2018-12-05T05:40:56.400Z,1009.73
2018-12-05T05:41:56.420Z,1009.74
2018-12-05T05:42:56.445Z,1009.76
2018-12-05T05:43:56.471Z,1009.78
2018-12-05T05:44:56.495Z,1009.80
2018-12-05T05:45:56.515Z,1009.79
2018-12-05T05:46:56.544Z,1009.83
2018-12-05T05:47:56.565Z,1009.86
2018-12-05T05:48:56.588Z,1009.91
2018-12-05T05:49:56.612Z,1009.92
2018-12-05T05:50:56.643Z,1009.88
2018-12-05T05:51:56.659Z,1009.91
2018-12-05T05:52:56.685Z,1009.93
2018-12-05T05:53:56.707Z,1009.99
2018-12-05T05:54:56.730Z,1009.97
2018-12-05T05:55:56.756Z,1010.01
2018-12-05T05:56:56.779Z,1010.02
2018-12-05T05:57:56.802Z,1010.02
2018-12-05T05:58:56.826Z,1010.06
2018-12-05T05:59:56.850Z,1010.04
2018-12-05T06:00:56.877Z,1010.04
2018-12-05T06:01:56.896Z,1010.06
2018-12-05T06:02:56.921Z,1010.08
2018-12-05T06:03:56.945Z,1010.05
2018-12-05T06:04:56.971Z,1010.11
2018-12-05T06:05:56.991Z,1010.12
2018-12-05T06:06:57.018Z,1010.13
2018-12-05T06:07:57.039Z,1010.16
2018-12-05T06:08:57.064Z,1010.16
2018-12-05T06:09:57.088Z,1010.21
2018-12-05T06:10:57.110Z,1010.24
2018-12-05T06:11:57.135Z,1010.27
2018-12-05T06:12:57.161Z,1010.31
2018-12-05T06:13:57.181Z,1010.30
2018-12-05T06:14:57.205Z,1010.32
2018-12-05T06:15:57.229Z,1010.36
2018-12-05T06:16:57.253Z,1010.37
2018-12-05T06:17:57.279Z,1010.38
2018-12-05T06:18:57.303Z,1010.37
2018-12-05T06:19:57.325Z,1010.43
2018-12-05T06:20:57.424Z,1010.42
2018-12-05T06:21:57.372Z,1010.42
2018-12-05T06:22:57.397Z,1010.39
2018-12-05T06:23:57.423Z,1010.46
2018-12-05T06:24:57.444Z,1010.43
2018-12-05T06:25:57.471Z,1010.44
2018-12-05T06:26:57.492Z,1010.53
2018-12-05T06:27:57.520Z,1010.50
2018-12-05T06:28:57.537Z,1010.53
2018-12-05T06:29:57.561Z,1010.52
2018-12-05T06:30:57.584Z,1010.52
2018-12-05T06:31:57.610Z,1010.55
2018-12-05T06:32:57.633Z,1010.62
2018-12-05T06:33:57.655Z,1010.57
2018-12-05T06:34:57.681Z,1010.65
2018-12-05T06:35:57.703Z,1010.64
2018-12-05T06:36:57.728Z,1010.66
2018-12-05T06:37:57.755Z,1010.67
2018-12-05T06:38:59.436Z,1010.69
2018-12-05T06:39:57.799Z,1010.75
2018-12-05T06:40:57.822Z,1010.74
2018-12-05T06:41:57.849Z,1010.74
2018-12-05T06:42:57.870Z,1010.77
2018-12-05T06:43:57.896Z,1010.75
2018-12-05T06:44:57.918Z,1010.75
2018-12-05T06:45:57.941Z,1010.77
2018-12-05T06:46:57.966Z,1010.80
2018-12-05T06:47:57.998Z,1010.81
2018-12-05T06:48:58.016Z,1010.85
2018-12-05T06:49:58.038Z,1010.86
2018-12-05T06:50:58.061Z,1010.92
2018-12-05T06:51:58.085Z,1010.89
2018-12-05T06:52:58.118Z,1010.93
2018-12-05T06:53:58.134Z,1010.91
2018-12-05T06:54:58.154Z,1010.91
2018-12-05T06:55:58.179Z,1010.97
2018-12-05T06:56:58.207Z,1010.97
2018-12-05T06:57:58.226Z,1011.05
2018-12-05T06:58:58.249Z,1011.09
2018-12-05T06:59:58.274Z,1011.12
2018-12-05T07:00:58.296Z,1011.10
2018-12-05T07:01:58.329Z,1011.10
2018-12-05T07:02:58.346Z,1011.15
2018-12-05T07:03:58.367Z,1011.20
2018-12-05T07:04:58.394Z,1011.19
2018-12-05T07:05:58.413Z,1011.19
2018-12-05T07:06:58.439Z,1011.26
2018-12-05T07:07:58.467Z,1011.26
2018-12-05T07:08:58.486Z,1011.30
2018-12-05T07:09:58.509Z,1011.30
2018-12-05T07:10:58.533Z,1011.34
2018-12-05T07:11:58.560Z,1011.34
2018-12-05T07:12:58.579Z,1011.36
2018-12-05T07:13:58.604Z,1011.35
2018-12-05T07:14:58.626Z,1011.40
2018-12-05T07:15:58.648Z,1011.40
2018-12-05T07:16:58.676Z,1011.43
2018-12-05T07:17:58.697Z,1011.42
2018-12-05T07:18:58.721Z,1011.48
2018-12-05T07:19:58.744Z,1011.48
2018-12-05T07:20:58.768Z,1011.51
2018-12-05T07:21:58.800Z,1011.52
2018-12-05T07:22:58.824Z,1011.51
2018-12-05T07:23:58.835Z,1011.52
2018-12-05T07:24:58.860Z,1011.48
2018-12-05T07:25:58.886Z,1011.52
2018-12-05T07:26:58.908Z,1011.54
2018-12-05T07:27:58.933Z,1011.57
2018-12-05T07:28:58.954Z,1011.55
2018-12-05T07:29:58.980Z,1011.57
2018-12-05T07:30:59.001Z,1011.60
2018-12-05T07:31:59.024Z,1011.59
2018-12-05T07:32:59.047Z,1011.59
2018-12-05T07:33:59.069Z,1011.61
2018-12-05T07:34:59.094Z,1011.64
2018-12-05T07:35:59.125Z,1011.62
2018-12-05T07:36:59.141Z,1011.65
2018-12-05T07:37:59.164Z,1011.66
2018-12-05T07:38:59.187Z,1011.65
2018-12-05T07:39:59.215Z,1011.64
2018-12-05T07:40:59.238Z,1011.65
2018-12-05T07:41:59.259Z,1011.70
2018-12-05T07:42:59.285Z,1011.63
2018-12-05T07:43:59.307Z,1011.71
2018-12-05T07:44:59.329Z,1011.68
2018-12-05T07:45:59.356Z,1011.72
2018-12-05T07:46:59.380Z,1011.76
2018-12-05T07:47:59.405Z,1011.71
2018-12-05T07:48:59.427Z,1011.76
2018-12-05T07:49:59.449Z,1011.79
2018-12-05T07:50:59.472Z,1011.81
2018-12-05T07:51:59.500Z,1011.86
2018-12-05T07:52:59.520Z,1011.86
2018-12-05T07:53:59.545Z,1011.92
2018-12-05T07:54:59.566Z,1011.89
2018-12-05T07:55:59.594Z,1011.91
2018-12-05T07:56:59.616Z,1011.89
2018-12-05T07:57:59.642Z,1011.89
2018-12-05T07:58:59.664Z,1011.87
2018-12-05T07:59:59.689Z,1011.93
2018-12-05T08:00:59.711Z,1011.94
2018-12-05T08:01:59.735Z,1011.98
2018-12-05T08:02:59.761Z,1012.02
2018-12-05T08:03:59.784Z,1012.02
2018-12-05T08:04:59.808Z,1012.01
2018-12-05T08:05:59.836Z,1012.01
2018-12-05T08:06:59.856Z,1012.02
2018-12-05T08:07:59.883Z,1012.04
2018-12-05T08:08:59.911Z,1012.04
2018-12-05T08:09:59.929Z,1012.07
2018-12-05T08:10:59.953Z,1012.07
2018-12-05T08:11:59.977Z,1012.06
2018-12-05T08:13:00.006Z,1012.07
2018-12-05T08:14:00.028Z,1012.16
2018-12-05T08:15:00.052Z,1012.14
2018-12-05T08:16:00.075Z,1012.19
2018-12-05T08:17:00.167Z,1012.19
2018-12-05T08:18:00.128Z,1012.20
2018-12-05T08:19:00.149Z,1012.20
2018-12-05T08:20:00.173Z,1012.17
2018-12-05T08:21:00.199Z,1012.20
2018-12-05T08:22:00.222Z,1012.27
2018-12-05T08:23:00.245Z,1012.29
2018-12-05T08:24:00.270Z,1012.29
2018-12-05T08:25:00.295Z,1012.31
2018-12-05T08:26:00.319Z,1012.33
2018-12-05T08:27:00.344Z,1012.40
2018-12-05T08:28:00.367Z,1012.43
2018-12-05T08:29:00.395Z,1012.44
2018-12-05T08:30:00.417Z,1012.43
2018-12-05T08:31:00.445Z,1012.47
2018-12-05T08:32:00.467Z,1012.46
2018-12-05T08:33:00.493Z,1012.52
2018-12-05T08:34:00.516Z,1012.53
2018-12-05T08:35:00.540Z,1012.55
2018-12-05T08:36:00.563Z,1012.62
2018-12-05T08:37:00.585Z,1012.57
2018-12-05T08:38:00.686Z,1012.60
2018-12-05T08:39:00.638Z,1012.61
2018-12-05T08:40:00.666Z,1012.66
2018-12-05T08:41:00.688Z,1012.63
2018-12-05T08:42:00.707Z,1012.67
2018-12-05T08:43:00.732Z,1012.67
2018-12-05T08:44:00.773Z,1012.67
2018-12-05T08:45:00.785Z,1012.71
2018-12-05T08:46:00.807Z,1012.74
2018-12-05T08:47:00.829Z,1012.76
2018-12-05T08:48:00.855Z,1012.74
2018-12-05T08:49:00.879Z,1012.75
2018-12-05T08:50:00.903Z,1012.82
2018-12-05T08:51:00.935Z,1012.83
2018-12-05T08:52:00.950Z,1012.85
2018-12-05T08:53:00.979Z,1012.84
2018-12-05T08:54:00.998Z,1012.87
2018-12-05T08:55:01.024Z,1012.93
2018-12-05T08:56:01.052Z,1012.97
2018-12-05T08:57:01.072Z,1012.95
2018-12-05T08:58:01.096Z,1012.93
2018-12-05T08:59:01.123Z,1012.88
2018-12-05T09:00:01.166Z,1012.87
2018-12-05T09:01:01.179Z,1012.97
2018-12-05T09:02:01.204Z,1012.93
2018-12-05T09:03:01.220Z,1012.94
2018-12-05T09:04:01.244Z,1012.90
2018-12-05T09:05:01.274Z,1012.98
2018-12-05T09:06:01.296Z,1012.89
2018-12-05T09:10:01.399Z,1012.97
2018-12-05T09:11:01.421Z,1013.00
2018-12-05T09:12:01.449Z,1013.01
2018-12-05T09:13:01.471Z,1013.04
2018-12-05T09:14:01.497Z,1013.01
2018-12-05T09:15:01.519Z,1013.12
2018-12-05T09:16:01.546Z,1013.17
2018-12-05T09:17:01.573Z,1013.09
2018-12-05T09:18:01.599Z,1013.04
2018-12-05T09:19:01.621Z,1013.13
2018-12-05T09:20:01.646Z,1013.18
2018-12-05T09:21:01.673Z,1013.26
2018-12-05T09:22:01.700Z,1013.20
2018-12-05T09:23:01.725Z,1013.27
2018-12-05T09:24:01.751Z,1013.26
2018-12-05T09:25:01.777Z,1013.22
2018-12-05T09:26:01.801Z,1013.27
2018-12-05T09:27:01.835Z,1013.27
2018-12-05T09:28:01.855Z,1013.29
2018-12-05T09:29:01.884Z,1013.25
2018-12-05T09:30:01.912Z,1013.28
2018-12-05T09:31:01.937Z,1013.29
2018-12-05T09:32:01.968Z,1013.30
2018-12-05T09:33:01.994Z,1013.31
2018-12-05T09:34:02.021Z,1013.32
2018-12-05T09:38:02.134Z,1013.31
2018-12-05T09:39:02.159Z,1013.23
2018-12-05T09:40:02.187Z,1013.33
2018-12-05T09:41:02.214Z,1013.32
2018-12-05T09:42:02.248Z,1013.33
2018-12-05T09:43:02.270Z,1013.39
2018-12-05T09:44:02.310Z,1013.38
2018-12-05T09:45:02.327Z,1013.40
2018-12-05T09:46:02.360Z,1013.45
2018-12-05T09:47:02.382Z,1013.43
2018-12-05T09:48:02.416Z,1013.52
2018-12-05T09:49:02.438Z,1013.55
2018-12-05T09:50:02.465Z,1013.50
2018-12-05T09:51:02.494Z,1013.49
2018-12-05T09:52:02.520Z,1013.51
2018-12-05T09:53:02.549Z,1013.52
2018-12-05T09:54:02.584Z,1013.52
2018-12-05T10:33:03.683Z,1013.95
2018-12-05T10:34:03.713Z,1013.92
2018-12-05T10:35:03.739Z,1013.95
2018-12-05T10:36:03.768Z,1013.96
2018-12-05T10:37:03.795Z,1013.97
2018-12-05T10:38:03.823Z,1013.99
2018-12-05T10:39:03.853Z,1014.03
2018-12-05T10:40:03.880Z,1014.00
2018-12-05T10:41:03.910Z,1013.95
2018-12-05T10:42:03.937Z,1014.06
2018-12-05T10:43:03.966Z,1013.95
2018-12-05T10:44:03.991Z,1013.99
2018-12-05T10:45:04.023Z,1014.00
2018-12-05T10:46:04.049Z,1013.98
2018-12-05T10:47:04.077Z,1014.00
2018-12-05T10:48:04.106Z,1013.96
2018-12-05T12:07:06.183Z,1014.76
2018-12-05T12:08:06.209Z,1014.78
2018-12-05T12:09:06.230Z,1014.82
2018-12-05T12:10:06.257Z,1014.81
2018-12-05T12:11:06.278Z,1014.90
2018-12-05T12:12:06.307Z,1014.84
2018-12-05T12:13:06.328Z,1014.88
2018-12-05T12:14:06.352Z,1014.81
2018-12-05T12:15:06.376Z,1014.85
2018-12-05T12:16:06.403Z,1014.90
2018-12-05T12:17:06.429Z,1014.93
2018-12-05T12:18:06.451Z,1014.88
2018-12-05T12:19:06.475Z,1014.92
2018-12-05T12:20:06.502Z,1014.98
2018-12-05T12:21:06.526Z,1014.98
2018-12-05T12:22:06.553Z,1014.96
2018-12-05T12:23:06.573Z,1015.01
2018-12-05T12:24:06.604Z,1015.07
2018-12-05T12:25:06.626Z,1015.04
2018-12-05T12:26:06.648Z,1015.03
2018-12-05T12:27:06.672Z,1015.03
2018-12-05T12:28:06.701Z,1015.08
2018-12-05T12:29:06.719Z,1015.08
2018-12-05T12:30:06.747Z,1015.10
2018-12-05T12:31:06.766Z,1015.08
2018-12-05T12:32:06.793Z,1015.11
2018-12-05T12:33:06.817Z,1015.13
2018-12-05T12:34:06.840Z,1015.16
2018-12-05T12:35:06.873Z,1015.18
2018-12-05T12:36:06.893Z,1015.21
2018-12-05T12:37:06.914Z,1015.26
2018-12-05T12:38:06.940Z,1015.29
2018-12-05T12:39:06.967Z,1015.31
2018-12-05T12:40:06.986Z,1015.33
2018-12-05T12:41:07.015Z,1015.38
2018-12-05T12:42:07.035Z,1015.34
2018-12-05T12:43:07.065Z,1015.35
2018-12-05T12:44:07.087Z,1015.39
2018-12-05T12:45:07.109Z,1015.36
2018-12-05T12:46:07.130Z,1015.30
2018-12-05T12:47:07.156Z,1015.34
2018-12-05T12:48:07.179Z,1015.33
2018-12-05T12:49:07.210Z,1015.39
2018-12-05T12:50:07.229Z,1015.34
2018-12-05T12:51:07.253Z,1015.35
2018-12-05T13:01:07.496Z,1015.55
2018-12-05T13:02:07.516Z,1015.52
2018-12-05T13:03:07.541Z,1015.59
2018-12-05T13:04:07.564Z,1015.56
2018-12-05T13:05:07.590Z,1015.61
2018-12-05T13:06:07.628Z,1015.62
2018-12-05T13:07:07.635Z,1015.67
2018-12-05T13:08:07.659Z,1015.66
2018-12-05T13:09:07.684Z,1015.61
2018-12-05T13:10:07.706Z,1015.64
2018-12-05T13:11:07.733Z,1015.67
2018-12-05T13:12:07.755Z,1015.68
2018-12-05T13:13:07.781Z,1015.72
2018-12-05T13:14:07.803Z,1015.72
2018-12-05T13:15:07.826Z,1015.73
2018-12-05T13:16:07.851Z,1015.79
2018-12-05T13:17:07.874Z,1015.82
2018-12-05T13:18:07.909Z,1015.81
2018-12-05T13:19:07.924Z,1015.80
2018-12-05T13:20:07.946Z,1015.84
2018-12-05T13:21:07.973Z,1015.84
2018-12-05T13:22:07.993Z,1015.84
2018-12-05T13:23:08.016Z,1015.83
2018-12-05T13:24:08.042Z,1015.86
2018-12-05T13:25:08.068Z,1015.84
2018-12-05T13:26:08.090Z,1015.87
2018-12-05T13:27:08.112Z,1015.85
2018-12-05T13:28:08.136Z,1015.87
2018-12-05T13:29:08.160Z,1015.90
2018-12-05T13:30:08.188Z,1015.88
2018-12-05T13:31:08.206Z,1015.96
2018-12-05T13:32:08.230Z,1015.95
2018-12-05T13:33:08.253Z,1015.91
2018-12-05T13:34:08.276Z,1015.89
2018-12-05T13:35:08.300Z,1015.88
2018-12-05T13:36:08.325Z,1015.87
2018-12-05T13:37:08.349Z,1015.87
2018-12-05T13:38:08.372Z,1015.85
2018-12-05T13:39:08.399Z,1015.88
2018-12-05T13:40:08.420Z,1015.91
2018-12-05T13:41:08.450Z,1015.90
2018-12-05T13:42:08.468Z,1015.92
2018-12-05T13:43:08.489Z,1015.95
2018-12-05T13:44:08.513Z,1015.99
2018-12-05T13:45:08.535Z,1015.95
2018-12-05T13:46:08.560Z,1015.89
2018-12-05T13:47:08.584Z,1015.98
2018-12-05T13:48:08.605Z,1015.99
2018-12-05T13:49:08.628Z,1016.08
2018-12-05T13:50:08.652Z,1016.08
2018-12-05T13:51:08.678Z,1016.08
2018-12-05T13:52:08.703Z,1016.07
2018-12-05T13:53:08.725Z,1016.10
2018-12-05T13:54:08.747Z,1016.14
2018-12-05T13:55:08.770Z,1016.14
2018-12-05T13:56:08.793Z,1016.14
2018-12-05T13:57:08.821Z,1016.18
2018-12-05T13:58:08.839Z,1016.17
2018-12-05T13:59:08.864Z,1016.19
2018-12-05T14:00:08.889Z,1016.22
2018-12-05T14:01:08.910Z,1016.21
2018-12-05T14:02:08.934Z,1016.20
2018-12-05T14:03:08.956Z,1016.25
2018-12-05T14:04:08.979Z,1016.26
2018-12-05T14:05:09.005Z,1016.28
2018-12-05T14:06:09.027Z,1016.29
2018-12-05T14:07:09.049Z,1016.32
2018-12-05T14:08:09.075Z,1016.34
2018-12-05T14:09:09.094Z,1016.35
2018-12-05T14:10:09.117Z,1016.35
2018-12-05T14:11:09.141Z,1016.40
2018-12-05T14:12:09.165Z,1016.36
2018-12-05T14:13:09.190Z,1016.40
2018-12-05T14:14:09.210Z,1016.37
2018-12-05T14:15:09.233Z,1016.39
2018-12-05T14:16:09.257Z,1016.44
2018-12-05T14:17:09.283Z,1016.41